sensor_id;sensor_type;location;lat;lon;timestamp;temperature;humidity
65046;DHT22;54657;52.022;5.534;2023-09-19T00:00:42;17.00;95.80
65046;DHT22;54657;52.022;5.534;2023-09-19T00:03:09;17.00;95.80
65046;DHT22;54657;52.022;5.534;2023-09-19T00:05:36;16.90;95.60
65046;DHT22;54657;52.022;5.534;2023-09-19T00:08:03;16.90;95.90
65046;DHT22;54657;52.022;5.534;2023-09-19T00:10:30;16.90;95.90
65046;DHT22;54657;52.022;5.534;2023-09-19T00:13:03;16.80;95.90
65046;DHT22;54657;52.022;5.534;2023-09-19T00:15:43;16.80;96.00
65046;DHT22;54657;52.022;5.534;2023-09-19T00:18:14;16.90;96.00
65046;DHT22;54657;52.022;5.534;2023-09-19T00:20:41;16.90;95.90
65046;DHT22;54657;52.022;5.534;2023-09-19T00:23:07;16.90;95.90
65046;DHT22;54657;52.022;5.534;2023-09-19T00:25:36;16.90;95.80
65046;DHT22;54657;52.022;5.534;2023-09-19T00:28:06;16.90;95.80
65046;DHT22;54657;52.022;5.534;2023-09-19T00:30:33;16.90;95.80
65046;DHT22;54657;52.022;5.534;2023-09-19T00:32:59;16.90;95.90
65046;DHT22;54657;52.022;5.534;2023-09-19T00:35:24;16.80;95.90
65046;DHT22;54657;52.022;5.534;2023-09-19T00:37:50;16.80;95.90
65046;DHT22;54657;52.022;5.534;2023-09-19T00:40:16;16.90;95.90
65046;DHT22;54657;52.022;5.534;2023-09-19T00:42:43;16.80;96.00
65046;DHT22;54657;52.022;5.534;2023-09-19T00:45:10;16.80;96.10
65046;DHT22;54657;52.022;5.534;2023-09-19T00:47:42;16.80;96.10
65046;DHT22;54657;52.022;5.534;2023-09-19T00:50:08;16.80;96.10
65046;DHT22;54657;52.022;5.534;2023-09-19T00:52:39;16.80;96.20
65046;DHT22;54657;52.022;5.534;2023-09-19T00:55:06;16.80;96.20
65046;DHT22;54657;52.022;5.534;2023-09-19T00:57:33;16.80;96.30
65046;DHT22;54657;52.022;5.534;2023-09-19T01:00:00;16.80;96.20
65046;DHT22;54657;52.022;5.534;2023-09-19T01:02:26;16.80;96.30
65046;DHT22;54657;52.022;5.534;2023-09-19T01:04:54;16.80;96.20
65046;DHT22;54657;52.022;5.534;2023-09-19T01:07:20;16.80;96.20
65046;DHT22;54657;52.022;5.534;2023-09-19T01:09:48;16.80;96.30
65046;DHT22;54657;52.022;5.534;2023-09-19T01:12:16;16.80;96.30
65046;DHT22;54657;52.022;5.534;2023-09-19T01:15:10;16.80;96.30
65046;DHT22;54657;52.022;5.534;2023-09-19T01:17:57;16.80;96.60
65046;DHT22;54657;52.022;5.534;2023-09-19T01:26:06;16.80;97.10
65046;DHT22;54657;52.022;5.534;2023-09-19T01:31:20;16.80;96.80
65046;DHT22;54657;52.022;5.534;2023-09-19T01:33:59;16.70;96.60
65046;DHT22;54657;52.022;5.534;2023-09-19T01:36:29;16.80;96.70
65046;DHT22;54657;52.022;5.534;2023-09-19T01:38:56;16.70;96.50
65046;DHT22;54657;52.022;5.534;2023-09-19T01:44:08;16.70;96.60
65046;DHT22;54657;52.022;5.534;2023-09-19T01:46:39;16.80;96.40
65046;DHT22;54657;52.022;5.534;2023-09-19T01:49:22;16.80;96.40
65046;DHT22;54657;52.022;5.534;2023-09-19T01:52:11;16.70;96.50
65046;DHT22;54657;52.022;5.534;2023-09-19T01:54:50;16.70;96.40
65046;DHT22;54657;52.022;5.534;2023-09-19T01:57:28;16.60;96.40
65046;DHT22;54657;52.022;5.534;2023-09-19T02:00:05;16.50;96.30
65046;DHT22;54657;52.022;5.534;2023-09-19T02:02:37;16.50;96.30
65046;DHT22;54657;52.022;5.534;2023-09-19T02:05:04;16.50;96.30
65046;DHT22;54657;52.022;5.534;2023-09-19T02:07:30;16.40;96.30
65046;DHT22;54657;52.022;5.534;2023-09-19T02:10:01;16.40;96.30
65046;DHT22;54657;52.022;5.534;2023-09-19T02:12:28;16.40;96.30
65046;DHT22;54657;52.022;5.534;2023-09-19T02:14:56;16.30;96.30
65046;DHT22;54657;52.022;5.534;2023-09-19T02:17:22;16.30;96.20
65046;DHT22;54657;52.022;5.534;2023-09-19T02:19:53;16.40;96.20
65046;DHT22;54657;52.022;5.534;2023-09-19T02:22:20;16.30;96.20
65046;DHT22;54657;52.022;5.534;2023-09-19T02:24:46;16.20;96.20
65046;DHT22;54657;52.022;5.534;2023-09-19T02:27:13;16.20;96.20
65046;DHT22;54657;52.022;5.534;2023-09-19T02:29:41;16.20;96.10
65046;DHT22;54657;52.022;5.534;2023-09-19T02:32:07;16.10;96.00
65046;DHT22;54657;52.022;5.534;2023-09-19T02:34:32;16.20;96.00
65046;DHT22;54657;52.022;5.534;2023-09-19T02:37:04;16.10;95.90
65046;DHT22;54657;52.022;5.534;2023-09-19T02:39:34;16.10;96.00
65046;DHT22;54657;52.022;5.534;2023-09-19T02:42:00;16.00;95.80
65046;DHT22;54657;52.022;5.534;2023-09-19T02:44:25;15.90;96.00
65046;DHT22;54657;52.022;5.534;2023-09-19T02:46:51;15.90;96.00
65046;DHT22;54657;52.022;5.534;2023-09-19T02:49:16;15.90;95.90
65046;DHT22;54657;52.022;5.534;2023-09-19T02:51:43;15.80;95.80
65046;DHT22;54657;52.022;5.534;2023-09-19T02:54:09;15.80;95.70
65046;DHT22;54657;52.022;5.534;2023-09-19T02:56:35;15.90;95.70
65046;DHT22;54657;52.022;5.534;2023-09-19T02:59:01;15.90;95.70
65046;DHT22;54657;52.022;5.534;2023-09-19T03:01:27;15.80;95.60
65046;DHT22;54657;52.022;5.534;2023-09-19T03:03:53;15.80;95.60
65046;DHT22;54657;52.022;5.534;2023-09-19T03:06:19;15.80;95.50
65046;DHT22;54657;52.022;5.534;2023-09-19T03:08:46;15.70;95.60
65046;DHT22;54657;52.022;5.534;2023-09-19T03:11:12;15.70;95.60
65046;DHT22;54657;52.022;5.534;2023-09-19T03:13:40;15.70;95.50
65046;DHT22;54657;52.022;5.534;2023-09-19T03:16:07;15.70;95.40
65046;DHT22;54657;52.022;5.534;2023-09-19T03:18:36;15.70;95.40
65046;DHT22;54657;52.022;5.534;2023-09-19T03:21:01;15.60;95.30
65046;DHT22;54657;52.022;5.534;2023-09-19T03:23:28;15.60;95.40
65046;DHT22;54657;52.022;5.534;2023-09-19T03:25:56;15.60;95.30
65046;DHT22;54657;52.022;5.534;2023-09-19T03:28:22;15.50;95.40
65046;DHT22;54657;52.022;5.534;2023-09-19T03:31:02;15.40;95.30
65046;DHT22;54657;52.022;5.534;2023-09-19T03:33:28;15.40;95.10
65046;DHT22;54657;52.022;5.534;2023-09-19T03:35:54;15.40;95.20
65046;DHT22;54657;52.022;5.534;2023-09-19T03:38:20;15.40;95.10
65046;DHT22;54657;52.022;5.534;2023-09-19T03:40:47;15.40;95.10
65046;DHT22;54657;52.022;5.534;2023-09-19T03:43:13;15.40;95.10
65046;DHT22;54657;52.022;5.534;2023-09-19T03:45:38;15.40;94.90
65046;DHT22;54657;52.022;5.534;2023-09-19T03:48:10;15.30;94.90
65046;DHT22;54657;52.022;5.534;2023-09-19T03:50:36;15.30;94.80
65046;DHT22;54657;52.022;5.534;2023-09-19T03:53:02;15.30;94.90
65046;DHT22;54657;52.022;5.534;2023-09-19T03:55:28;15.20;94.90
65046;DHT22;54657;52.022;5.534;2023-09-19T03:57:56;15.20;94.80
65046;DHT22;54657;52.022;5.534;2023-09-19T04:00:21;15.10;94.80
65046;DHT22;54657;52.022;5.534;2023-09-19T04:02:51;15.20;94.90
65046;DHT22;54657;52.022;5.534;2023-09-19T04:05:17;15.20;94.70
65046;DHT22;54657;52.022;5.534;2023-09-19T04:07:43;15.20;94.60
65046;DHT22;54657;52.022;5.534;2023-09-19T04:10:09;15.20;94.60
65046;DHT22;54657;52.022;5.534;2023-09-19T04:12:37;15.20;94.60
65046;DHT22;54657;52.022;5.534;2023-09-19T04:15:06;15.20;94.50
65046;DHT22;54657;52.022;5.534;2023-09-19T04:17:32;15.20;94.40
65046;DHT22;54657;52.022;5.534;2023-09-19T04:19:59;15.20;94.40
65046;DHT22;54657;52.022;5.534;2023-09-19T04:22:25;15.10;94.40
65046;DHT22;54657;52.022;5.534;2023-09-19T04:24:50;15.10;94.40
65046;DHT22;54657;52.022;5.534;2023-09-19T04:27:16;15.10;94.20
65046;DHT22;54657;52.022;5.534;2023-09-19T04:29:42;15.10;94.20
65046;DHT22;54657;52.022;5.534;2023-09-19T04:32:08;15.00;94.10
65046;DHT22;54657;52.022;5.534;2023-09-19T04:34:35;15.00;94.30
65046;DHT22;54657;52.022;5.534;2023-09-19T04:37:00;15.00;94.30
65046;DHT22;54657;52.022;5.534;2023-09-19T04:39:27;15.00;94.10
65046;DHT22;54657;52.022;5.534;2023-09-19T04:41:53;15.00;94.20
65046;DHT22;54657;52.022;5.534;2023-09-19T04:44:20;15.00;94.20
65046;DHT22;54657;52.022;5.534;2023-09-19T04:46:46;15.10;94.20
65046;DHT22;54657;52.022;5.534;2023-09-19T04:49:12;15.10;94.10
65046;DHT22;54657;52.022;5.534;2023-09-19T04:51:38;15.10;94.20
65046;DHT22;54657;52.022;5.534;2023-09-19T04:54:05;15.10;94.10
65046;DHT22;54657;52.022;5.534;2023-09-19T04:56:31;15.10;94.00
65046;DHT22;54657;52.022;5.534;2023-09-19T04:58:58;15.10;93.90
65046;DHT22;54657;52.022;5.534;2023-09-19T05:01:24;15.00;94.00
65046;DHT22;54657;52.022;5.534;2023-09-19T05:03:50;15.10;94.00
65046;DHT22;54657;52.022;5.534;2023-09-19T05:06:19;15.10;94.00
65046;DHT22;54657;52.022;5.534;2023-09-19T05:08:46;15.00;94.00
65046;DHT22;54657;52.022;5.534;2023-09-19T05:11:15;15.00;94.00
65046;DHT22;54657;52.022;5.534;2023-09-19T05:13:41;15.00;94.00
65046;DHT22;54657;52.022;5.534;2023-09-19T05:16:06;15.00;94.00
65046;DHT22;54657;52.022;5.534;2023-09-19T05:18:35;15.10;94.00
65046;DHT22;54657;52.022;5.534;2023-09-19T05:21:02;15.00;93.90
65046;DHT22;54657;52.022;5.534;2023-09-19T05:23:28;15.00;94.00
65046;DHT22;54657;52.022;5.534;2023-09-19T05:25:53;15.00;94.00
65046;DHT22;54657;52.022;5.534;2023-09-19T05:28:20;15.00;94.00
65046;DHT22;54657;52.022;5.534;2023-09-19T05:30:45;15.00;93.90
65046;DHT22;54657;52.022;5.534;2023-09-19T05:33:12;15.10;94.00
65046;DHT22;54657;52.022;5.534;2023-09-19T05:35:38;15.10;93.90
65046;DHT22;54657;52.022;5.534;2023-09-19T05:38:05;15.10;93.90
65046;DHT22;54657;52.022;5.534;2023-09-19T05:40:34;15.10;94.00
65046;DHT22;54657;52.022;5.534;2023-09-19T05:43:00;15.10;93.90
65046;DHT22;54657;52.022;5.534;2023-09-19T05:45:26;15.20;94.00
65046;DHT22;54657;52.022;5.534;2023-09-19T05:47:53;15.20;94.00
65046;DHT22;54657;52.022;5.534;2023-09-19T05:50:29;15.20;93.90
65046;DHT22;54657;52.022;5.534;2023-09-19T05:52:55;15.20;94.00
65046;DHT22;54657;52.022;5.534;2023-09-19T05:55:21;15.20;94.00
65046;DHT22;54657;52.022;5.534;2023-09-19T05:57:50;15.20;93.90
65046;DHT22;54657;52.022;5.534;2023-09-19T06:00:18;15.20;94.00
65046;DHT22;54657;52.022;5.534;2023-09-19T06:02:44;15.30;94.00
65046;DHT22;54657;52.022;5.534;2023-09-19T06:05:10;15.30;94.00
65046;DHT22;54657;52.022;5.534;2023-09-19T06:07:37;15.30;94.00
65046;DHT22;54657;52.022;5.534;2023-09-19T06:10:06;15.40;94.00
65046;DHT22;54657;52.022;5.534;2023-09-19T06:12:32;15.30;93.90
65046;DHT22;54657;52.022;5.534;2023-09-19T06:14:59;15.40;94.00
65046;DHT22;54657;52.022;5.534;2023-09-19T06:17:25;15.40;94.00
65046;DHT22;54657;52.022;5.534;2023-09-19T06:19:52;15.40;94.10
65046;DHT22;54657;52.022;5.534;2023-09-19T06:22:18;15.40;94.10
65046;DHT22;54657;52.022;5.534;2023-09-19T06:24:44;15.40;94.10
65046;DHT22;54657;52.022;5.534;2023-09-19T06:27:10;15.40;94.20
65046;DHT22;54657;52.022;5.534;2023-09-19T06:29:35;15.50;94.20
65046;DHT22;54657;52.022;5.534;2023-09-19T06:32:09;15.50;94.20
65046;DHT22;54657;52.022;5.534;2023-09-19T06:34:35;15.60;94.20
65046;DHT22;54657;52.022;5.534;2023-09-19T06:37:01;15.50;94.10
65046;DHT22;54657;52.022;5.534;2023-09-19T06:39:28;15.50;94.30
65046;DHT22;54657;52.022;5.534;2023-09-19T06:41:54;15.60;94.30
65046;DHT22;54657;52.022;5.534;2023-09-19T06:44:19;15.60;94.30
65046;DHT22;54657;52.022;5.534;2023-09-19T06:46:50;15.70;94.30
65046;DHT22;54657;52.022;5.534;2023-09-19T06:49:17;15.70;94.30
65046;DHT22;54657;52.022;5.534;2023-09-19T06:51:42;15.70;94.30
65046;DHT22;54657;52.022;5.534;2023-09-19T06:54:09;15.80;94.40
65046;DHT22;54657;52.022;5.534;2023-09-19T06:56:35;15.80;94.30
65046;DHT22;54657;52.022;5.534;2023-09-19T06:59:00;15.80;94.30
65046;DHT22;54657;52.022;5.534;2023-09-19T07:01:28;15.90;94.40
65046;DHT22;54657;52.022;5.534;2023-09-19T07:03:53;15.80;94.40
65046;DHT22;54657;52.022;5.534;2023-09-19T07:06:19;15.90;94.40
65046;DHT22;54657;52.022;5.534;2023-09-19T07:08:45;15.90;94.40
65046;DHT22;54657;52.022;5.534;2023-09-19T07:11:11;15.90;94.40
65046;DHT22;54657;52.022;5.534;2023-09-19T07:13:38;16.00;94.40
65046;DHT22;54657;52.022;5.534;2023-09-19T07:16:04;16.00;94.40
65046;DHT22;54657;52.022;5.534;2023-09-19T07:18:30;16.00;94.40
65046;DHT22;54657;52.022;5.534;2023-09-19T07:20:57;16.00;94.50
65046;DHT22;54657;52.022;5.534;2023-09-19T07:23:24;16.10;94.40
65046;DHT22;54657;52.022;5.534;2023-09-19T07:25:51;16.10;94.30
65046;DHT22;54657;52.022;5.534;2023-09-19T07:28:17;16.20;94.30
65046;DHT22;54657;52.022;5.534;2023-09-19T07:30:43;16.20;94.30
65046;DHT22;54657;52.022;5.534;2023-09-19T07:33:09;16.20;94.30
65046;DHT22;54657;52.022;5.534;2023-09-19T07:35:37;16.30;94.30
65046;DHT22;54657;52.022;5.534;2023-09-19T07:38:06;16.30;94.30
65046;DHT22;54657;52.022;5.534;2023-09-19T07:40:31;16.30;94.30
65046;DHT22;54657;52.022;5.534;2023-09-19T07:42:57;16.40;94.30
65046;DHT22;54657;52.022;5.534;2023-09-19T07:45:27;16.40;94.20
65046;DHT22;54657;52.022;5.534;2023-09-19T07:47:53;16.50;94.30
65046;DHT22;54657;52.022;5.534;2023-09-19T07:50:19;16.50;94.30
65046;DHT22;54657;52.022;5.534;2023-09-19T07:52:49;16.60;94.20
65046;DHT22;54657;52.022;5.534;2023-09-19T07:55:21;16.60;94.50
65046;DHT22;54657;52.022;5.534;2023-09-19T07:57:50;16.60;94.20
65046;DHT22;54657;52.022;5.534;2023-09-19T08:00:16;16.60;93.90
65046;DHT22;54657;52.022;5.534;2023-09-19T08:02:43;16.60;94.30
65046;DHT22;54657;52.022;5.534;2023-09-19T08:05:09;16.70;94.30
65046;DHT22;54657;52.022;5.534;2023-09-19T08:07:37;16.80;94.20
65046;DHT22;54657;52.022;5.534;2023-09-19T08:10:04;16.80;94.10
65046;DHT22;54657;52.022;5.534;2023-09-19T08:12:33;16.90;94.10
65046;DHT22;54657;52.022;5.534;2023-09-19T08:15:01;16.90;94.00
65046;DHT22;54657;52.022;5.534;2023-09-19T08:17:27;17.00;94.00
65046;DHT22;54657;52.022;5.534;2023-09-19T08:19:53;17.00;93.90
65046;DHT22;54657;52.022;5.534;2023-09-19T08:22:20;17.20;94.00
65046;DHT22;54657;52.022;5.534;2023-09-19T08:24:46;17.10;93.80
65046;DHT22;54657;52.022;5.534;2023-09-19T08:27:13;17.20;93.80
65046;DHT22;54657;52.022;5.534;2023-09-19T08:29:39;17.20;93.80
65046;DHT22;54657;52.022;5.534;2023-09-19T08:32:04;17.30;93.80
65046;DHT22;54657;52.022;5.534;2023-09-19T08:34:30;17.30;93.70
65046;DHT22;54657;52.022;5.534;2023-09-19T08:36:59;17.40;93.80
65046;DHT22;54657;52.022;5.534;2023-09-19T08:39:25;17.50;93.80
65046;DHT22;54657;52.022;5.534;2023-09-19T08:41:58;17.50;93.60
65046;DHT22;54657;52.022;5.534;2023-09-19T08:44:28;17.50;93.50
65046;DHT22;54657;52.022;5.534;2023-09-19T08:47:26;17.60;93.60
65046;DHT22;54657;52.022;5.534;2023-09-19T08:50:09;17.60;93.10
65046;DHT22;54657;52.022;5.534;2023-09-19T08:52:43;17.50;93.50
65046;DHT22;54657;52.022;5.534;2023-09-19T08:55:12;17.60;93.50
65046;DHT22;54657;52.022;5.534;2023-09-19T08:57:38;17.60;92.70
65046;DHT22;54657;52.022;5.534;2023-09-19T09:00:08;17.60;93.50
65046;DHT22;54657;52.022;5.534;2023-09-19T09:02:41;17.70;93.50
65046;DHT22;54657;52.022;5.534;2023-09-19T09:05:09;17.70;93.40
65046;DHT22;54657;52.022;5.534;2023-09-19T09:07:42;17.80;93.30
65046;DHT22;54657;52.022;5.534;2023-09-19T09:10:09;17.90;93.30
65046;DHT22;54657;52.022;5.534;2023-09-19T09:12:35;17.90;93.10
65046;DHT22;54657;52.022;5.534;2023-09-19T09:15:06;17.90;93.00
65046;DHT22;54657;52.022;5.534;2023-09-19T09:17:34;18.00;93.00
65046;DHT22;54657;52.022;5.534;2023-09-19T09:20:00;18.10;93.00
65046;DHT22;54657;52.022;5.534;2023-09-19T09:22:25;18.10;92.90
65046;DHT22;54657;52.022;5.534;2023-09-19T09:24:53;18.10;92.70
65046;DHT22;54657;52.022;5.534;2023-09-19T09:27:20;18.10;92.60
65046;DHT22;54657;52.022;5.534;2023-09-19T09:29:48;18.10;92.60
65046;DHT22;54657;52.022;5.534;2023-09-19T09:32:28;18.10;92.60
65046;DHT22;54657;52.022;5.534;2023-09-19T09:35:06;18.30;92.10
65046;DHT22;54657;52.022;5.534;2023-09-19T09:37:34;18.40;92.90
65046;DHT22;54657;52.022;5.534;2023-09-19T09:40:04;18.50;92.40
65046;DHT22;54657;52.022;5.534;2023-09-19T09:42:42;18.60;92.20
65046;DHT22;54657;52.022;5.534;2023-09-19T09:45:18;18.70;92.10
65046;DHT22;54657;52.022;5.534;2023-09-19T09:48:00;18.70;91.70
65046;DHT22;54657;52.022;5.534;2023-09-19T09:50:30;18.70;91.90
65046;DHT22;54657;52.022;5.534;2023-09-19T09:53:20;18.80;91.90
65046;DHT22;54657;52.022;5.534;2023-09-19T09:58:28;18.90;91.10
65046;DHT22;54657;52.022;5.534;2023-09-19T10:00:58;19.00;91.70
65046;DHT22;54657;52.022;5.534;2023-09-19T10:03:38;19.00;91.30
65046;DHT22;54657;52.022;5.534;2023-09-19T10:06:06;19.10;89.40
65046;DHT22;54657;52.022;5.534;2023-09-19T10:09:07;19.10;91.10
65046;DHT22;54657;52.022;5.534;2023-09-19T10:11:44;19.20;90.10
65046;DHT22;54657;52.022;5.534;2023-09-19T10:14:11;19.20;90.70
65046;DHT22;54657;52.022;5.534;2023-09-19T10:16:47;19.30;90.80
65046;DHT22;54657;52.022;5.534;2023-09-19T10:19:31;19.40;90.50
65046;DHT22;54657;52.022;5.534;2023-09-19T10:22:01;19.50;90.00
65046;DHT22;54657;52.022;5.534;2023-09-19T10:24:28;19.50;90.70
65046;DHT22;54657;52.022;5.534;2023-09-19T10:26:55;19.50;90.40
65046;DHT22;54657;52.022;5.534;2023-09-19T10:29:21;19.50;90.60
65046;DHT22;54657;52.022;5.534;2023-09-19T10:31:47;19.40;90.40
65046;DHT22;54657;52.022;5.534;2023-09-19T10:34:17;19.40;90.40
65046;DHT22;54657;52.022;5.534;2023-09-19T10:36:46;19.30;90.40
65046;DHT22;54657;52.022;5.534;2023-09-19T10:39:16;19.30;90.30
65046;DHT22;54657;52.022;5.534;2023-09-19T10:41:50;19.30;90.30
65046;DHT22;54657;52.022;5.534;2023-09-19T10:44:25;19.40;90.50
65046;DHT22;54657;52.022;5.534;2023-09-19T10:46:52;19.50;90.40
65046;DHT22;54657;52.022;5.534;2023-09-19T10:49:20;19.40;90.40
65046;DHT22;54657;52.022;5.534;2023-09-19T10:51:47;19.50;90.30
65046;DHT22;54657;52.022;5.534;2023-09-19T10:54:17;19.50;90.20
65046;DHT22;54657;52.022;5.534;2023-09-19T10:56:49;19.60;89.60
65046;DHT22;54657;52.022;5.534;2023-09-19T10:59:21;19.60;90.20
65046;DHT22;54657;52.022;5.534;2023-09-19T11:01:47;19.70;90.20
65046;DHT22;54657;52.022;5.534;2023-09-19T11:04:36;19.70;90.10
65046;DHT22;54657;52.022;5.534;2023-09-19T11:07:09;19.80;88.40
65046;DHT22;54657;52.022;5.534;2023-09-19T11:09:54;19.80;89.90
65046;DHT22;54657;52.022;5.534;2023-09-19T11:14:55;19.90;89.60
65046;DHT22;54657;52.022;5.534;2023-09-19T11:30:44;19.90;86.30
65046;DHT22;54657;52.022;5.534;2023-09-19T11:33:17;20.00;89.00
65046;DHT22;54657;52.022;5.534;2023-09-19T11:36:10;20.10;85.90
65046;DHT22;54657;52.022;5.534;2023-09-19T11:43:51;20.30;87.50
65046;DHT22;54657;52.022;5.534;2023-09-19T11:46:18;20.20;86.50
65046;DHT22;54657;52.022;5.534;2023-09-19T11:48:51;20.30;87.20
65046;DHT22;54657;52.022;5.534;2023-09-19T11:51:20;20.30;86.30
65046;DHT22;54657;52.022;5.534;2023-09-19T11:53:58;20.40;87.50
65046;DHT22;54657;52.022;5.534;2023-09-19T11:56:28;20.40;86.20
65046;DHT22;54657;52.022;5.534;2023-09-19T11:58:55;20.50;87.00
65046;DHT22;54657;52.022;5.534;2023-09-19T12:01:31;20.50;86.60
65046;DHT22;54657;52.022;5.534;2023-09-19T12:03:58;20.50;83.80
65046;DHT22;54657;52.022;5.534;2023-09-19T12:06:26;20.50;85.50
65046;DHT22;54657;52.022;5.534;2023-09-19T12:08:52;20.50;85.10
65046;DHT22;54657;52.022;5.534;2023-09-19T12:11:21;20.50;85.90
65046;DHT22;54657;52.022;5.534;2023-09-19T12:13:48;20.60;86.30
65046;DHT22;54657;52.022;5.534;2023-09-19T12:16:18;20.60;86.30
65046;DHT22;54657;52.022;5.534;2023-09-19T12:18:47;20.60;86.10
65046;DHT22;54657;52.022;5.534;2023-09-19T12:21:26;20.50;85.90
65046;DHT22;54657;52.022;5.534;2023-09-19T12:24:19;20.40;84.30
65046;DHT22;54657;52.022;5.534;2023-09-19T12:26:46;20.40;83.60
65046;DHT22;54657;52.022;5.534;2023-09-19T12:29:21;20.40;86.40
65046;DHT22;54657;52.022;5.534;2023-09-19T12:31:48;20.40;86.40
65046;DHT22;54657;52.022;5.534;2023-09-19T12:39:40;20.30;83.70
65046;DHT22;54657;52.022;5.534;2023-09-19T12:42:10;20.20;86.40
65046;DHT22;54657;52.022;5.534;2023-09-19T12:44:41;20.20;85.70
65046;DHT22;54657;52.022;5.534;2023-09-19T12:47:15;20.20;86.10
65046;DHT22;54657;52.022;5.534;2023-09-19T12:50:14;20.10;85.60
65046;DHT22;54657;52.022;5.534;2023-09-19T12:52:47;20.10;83.60
65046;DHT22;54657;52.022;5.534;2023-09-19T12:55:24;20.00;86.00
65046;DHT22;54657;52.022;5.534;2023-09-19T12:58:12;20.00;84.50
65046;DHT22;54657;52.022;5.534;2023-09-19T13:00:40;19.90;82.90
65046;DHT22;54657;52.022;5.534;2023-09-19T13:08:32;19.90;84.50
65046;DHT22;54657;52.022;5.534;2023-09-19T13:11:06;20.00;85.30
65046;DHT22;54657;52.022;5.534;2023-09-19T13:13:48;20.00;85.70
65046;DHT22;54657;52.022;5.534;2023-09-19T13:16:16;19.90;86.10
65046;DHT22;54657;52.022;5.534;2023-09-19T13:18:49;19.90;86.30
65046;DHT22;54657;52.022;5.534;2023-09-19T13:21:17;19.90;86.10
65046;DHT22;54657;52.022;5.534;2023-09-19T13:23:53;19.90;86.30
65046;DHT22;54657;52.022;5.534;2023-09-19T13:26:27;19.80;86.20
65046;DHT22;54657;52.022;5.534;2023-09-19T13:28:54;19.80;86.20
65046;DHT22;54657;52.022;5.534;2023-09-19T13:31:19;19.80;86.20
65046;DHT22;54657;52.022;5.534;2023-09-19T13:33:47;19.90;86.40
65046;DHT22;54657;52.022;5.534;2023-09-19T13:36:13;19.80;86.30
65046;DHT22;54657;52.022;5.534;2023-09-19T13:38:42;19.90;86.30
65046;DHT22;54657;52.022;5.534;2023-09-19T13:41:09;19.90;86.10
65046;DHT22;54657;52.022;5.534;2023-09-19T13:43:39;19.90;86.20
65046;DHT22;54657;52.022;5.534;2023-09-19T13:46:05;19.90;86.10
65046;DHT22;54657;52.022;5.534;2023-09-19T13:48:37;19.90;86.30
65046;DHT22;54657;52.022;5.534;2023-09-19T13:51:03;20.00;86.60
65046;DHT22;54657;52.022;5.534;2023-09-19T13:53:30;20.00;86.40
65046;DHT22;54657;52.022;5.534;2023-09-19T13:55:55;20.10;86.30
65046;DHT22;54657;52.022;5.534;2023-09-19T13:58:21;20.10;86.90
65046;DHT22;54657;52.022;5.534;2023-09-19T14:00:48;20.20;86.30
65046;DHT22;54657;52.022;5.534;2023-09-19T14:03:14;20.30;86.30
65046;DHT22;54657;52.022;5.534;2023-09-19T14:05:39;20.30;86.10
65046;DHT22;54657;52.022;5.534;2023-09-19T14:08:05;20.30;86.10
65046;DHT22;54657;52.022;5.534;2023-09-19T14:10:31;20.30;86.10
65046;DHT22;54657;52.022;5.534;2023-09-19T14:12:57;20.30;85.90
65046;DHT22;54657;52.022;5.534;2023-09-19T14:15:26;20.30;86.00
65046;DHT22;54657;52.022;5.534;2023-09-19T14:17:58;20.30;86.00
65046;DHT22;54657;52.022;5.534;2023-09-19T14:20:24;20.30;85.70
65046;DHT22;54657;52.022;5.534;2023-09-19T14:22:52;20.20;85.80
65046;DHT22;54657;52.022;5.534;2023-09-19T14:25:18;20.20;86.00
65046;DHT22;54657;52.022;5.534;2023-09-19T14:27:43;20.30;86.20
65046;DHT22;54657;52.022;5.534;2023-09-19T14:30:10;20.20;85.90
65046;DHT22;54657;52.022;5.534;2023-09-19T14:32:35;20.20;85.80
65046;DHT22;54657;52.022;5.534;2023-09-19T14:35:02;20.20;85.90
65046;DHT22;54657;52.022;5.534;2023-09-19T14:37:28;20.10;85.50
65046;DHT22;54657;52.022;5.534;2023-09-19T14:39:54;20.10;85.80
65046;DHT22;54657;52.022;5.534;2023-09-19T14:42:19;20.00;85.60
65046;DHT22;54657;52.022;5.534;2023-09-19T14:44:45;20.00;85.90
65046;DHT22;54657;52.022;5.534;2023-09-19T14:47:12;20.00;85.80
65046;DHT22;54657;52.022;5.534;2023-09-19T14:49:38;20.10;85.80
65046;DHT22;54657;52.022;5.534;2023-09-19T14:52:09;20.00;85.80
65046;DHT22;54657;52.022;5.534;2023-09-19T14:54:35;20.00;85.80
65046;DHT22;54657;52.022;5.534;2023-09-19T14:57:03;20.00;85.70
65046;DHT22;54657;52.022;5.534;2023-09-19T14:59:33;19.90;85.70
65046;DHT22;54657;52.022;5.534;2023-09-19T15:02:05;19.90;85.30
65046;DHT22;54657;52.022;5.534;2023-09-19T15:04:30;19.90;85.70
65046;DHT22;54657;52.022;5.534;2023-09-19T15:06:56;19.90;85.90
65046;DHT22;54657;52.022;5.534;2023-09-19T15:09:23;19.90;85.80
65046;DHT22;54657;52.022;5.534;2023-09-19T15:11:55;19.90;85.70
65046;DHT22;54657;52.022;5.534;2023-09-19T15:14:21;19.90;85.70
65046;DHT22;54657;52.022;5.534;2023-09-19T15:16:48;19.80;85.60
65046;DHT22;54657;52.022;5.534;2023-09-19T15:19:14;19.80;85.60
65046;DHT22;54657;52.022;5.534;2023-09-19T15:21:40;19.80;85.80
65046;DHT22;54657;52.022;5.534;2023-09-19T15:24:06;19.80;85.40
65046;DHT22;54657;52.022;5.534;2023-09-19T15:26:35;19.80;85.70
65046;DHT22;54657;52.022;5.534;2023-09-19T15:29:07;19.80;85.70
65046;DHT22;54657;52.022;5.534;2023-09-19T15:31:33;19.80;85.50
65046;DHT22;54657;52.022;5.534;2023-09-19T15:33:58;19.80;85.80
65046;DHT22;54657;52.022;5.534;2023-09-19T15:36:24;19.80;85.70
65046;DHT22;54657;52.022;5.534;2023-09-19T15:39:07;19.80;85.70
65046;DHT22;54657;52.022;5.534;2023-09-19T15:45:06;19.80;84.50
65046;DHT22;54657;52.022;5.534;2023-09-19T15:51:03;19.70;86.00
65046;DHT22;54657;52.022;5.534;2023-09-19T15:53:44;19.70;86.00
65046;DHT22;54657;52.022;5.534;2023-09-19T15:56:10;19.70;85.70
65046;DHT22;54657;52.022;5.534;2023-09-19T15:58:37;19.70;86.20
65046;DHT22;54657;52.022;5.534;2023-09-19T16:01:05;19.70;86.20
65046;DHT22;54657;52.022;5.534;2023-09-19T16:03:37;19.80;86.40
65046;DHT22;54657;52.022;5.534;2023-09-19T16:06:14;19.70;86.60
65046;DHT22;54657;52.022;5.534;2023-09-19T16:08:45;19.70;86.60
65046;DHT22;54657;52.022;5.534;2023-09-19T16:11:11;19.60;87.00
65046;DHT22;54657;52.022;5.534;2023-09-19T16:13:41;19.50;87.30
65046;DHT22;54657;52.022;5.534;2023-09-19T16:16:10;19.50;87.40
65046;DHT22;54657;52.022;5.534;2023-09-19T16:18:54;19.40;87.60
65046;DHT22;54657;52.022;5.534;2023-09-19T16:21:25;19.30;87.40
65046;DHT22;54657;52.022;5.534;2023-09-19T16:23:56;19.40;88.20
65046;DHT22;54657;52.022;5.534;2023-09-19T16:26:22;19.30;87.50
65046;DHT22;54657;52.022;5.534;2023-09-19T16:28:51;19.40;87.40
65046;DHT22;54657;52.022;5.534;2023-09-19T16:31:17;19.40;87.40
65046;DHT22;54657;52.022;5.534;2023-09-19T16:33:45;19.40;87.40